createdAt,value
2018-08-30T00:00:31.901Z,10.07
2018-08-30T00:03:00.343Z,10.23
2018-08-30T00:05:28.824Z,11.00
2018-08-30T00:07:57.360Z,10.97
2018-08-30T00:10:25.803Z,11.43
2018-08-30T00:12:54.319Z,12.00
2018-08-30T00:15:22.823Z,13.30
2018-08-30T00:17:51.309Z,12.97
2018-08-30T00:20:19.838Z,12.30
2018-08-30T00:22:48.330Z,14.13
2018-08-30T00:25:16.899Z,13.43
2018-08-30T00:27:45.369Z,15.83
2018-08-30T00:30:13.998Z,16.63
2018-08-30T00:32:43.780Z,17.93
2018-08-30T00:35:12.292Z,20.40
2018-08-30T00:37:43.844Z,20.60
2018-08-30T00:40:12.529Z,21.20
2018-08-30T00:42:41.169Z,21.40
2018-08-30T00:45:09.591Z,20.60
2018-08-30T00:47:39.158Z,19.67
2018-08-30T00:50:07.658Z,20.53
2018-08-30T00:52:36.086Z,22.40
2018-08-30T00:55:04.717Z,23.43
2018-08-30T00:57:33.158Z,25.37
2018-08-30T01:00:01.810Z,27.07
2018-08-30T01:02:30.247Z,26.07
2018-08-30T01:04:58.686Z,25.90
2018-08-30T01:07:27.502Z,26.27
2018-08-30T01:09:55.973Z,27.23
2018-08-30T01:12:24.408Z,28.30
2018-08-30T01:14:52.967Z,29.90
2018-08-30T01:17:21.478Z,30.00
2018-08-30T01:19:49.953Z,28.53
2018-08-30T01:22:18.638Z,29.73
2018-08-30T01:24:47.097Z,28.70
2018-08-30T01:27:15.597Z,28.57
2018-08-30T01:29:44.387Z,30.50
2018-08-30T01:32:12.876Z,29.60
2018-08-30T01:34:41.374Z,30.47
2018-08-30T01:37:10.002Z,29.70
2018-08-30T01:39:38.483Z,32.73
2018-08-30T01:42:07.005Z,37.77
2018-08-30T01:44:35.560Z,29.47
2018-08-30T01:47:04.079Z,31.77
2018-08-30T01:49:32.605Z,31.23
2018-08-30T01:52:01.104Z,30.47
2018-08-30T01:54:29.562Z,30.43
2018-08-30T01:56:58.032Z,31.07
2018-08-30T01:59:26.563Z,31.67
2018-08-30T02:01:54.982Z,31.40
2018-08-30T02:04:23.542Z,32.03
2018-08-30T02:06:52.107Z,33.43
2018-08-30T02:09:20.679Z,31.43
2018-08-30T02:11:49.240Z,31.60
2018-08-30T02:14:17.757Z,33.40
2018-08-30T02:16:46.204Z,35.87
2018-08-30T02:19:14.744Z,31.97
2018-08-30T02:21:43.568Z,34.03
2018-08-30T02:24:12.006Z,33.20
2018-08-30T02:26:40.466Z,36.50
2018-08-30T02:29:09.080Z,33.13
2018-08-30T02:31:37.568Z,32.03
2018-08-30T02:34:06.251Z,32.53
2018-08-30T02:36:34.710Z,34.97
2018-08-30T02:39:03.915Z,33.30
2018-08-30T02:41:32.356Z,32.53
2018-08-30T02:44:00.801Z,34.63
2018-08-30T02:46:29.343Z,33.33
2018-08-30T02:48:57.978Z,39.40
2018-08-30T02:51:26.601Z,32.90
2018-08-30T02:53:55.097Z,33.90
2018-08-30T02:56:23.538Z,32.50
2018-08-30T02:58:52.161Z,33.67
2018-08-30T03:01:20.620Z,33.47
2018-08-30T03:03:49.200Z,32.27
2018-08-30T03:06:17.689Z,32.63
2018-08-30T03:08:46.213Z,32.10
2018-08-30T03:11:14.636Z,33.17
2018-08-30T03:13:43.069Z,33.57
2018-08-30T03:16:11.525Z,33.87
2018-08-30T03:18:40.112Z,35.27
2018-08-30T03:21:08.955Z,33.77
2018-08-30T03:23:37.751Z,33.40
2018-08-30T03:26:06.885Z,35.53
2018-08-30T03:28:35.834Z,34.20
2018-08-30T03:31:04.814Z,35.40
2018-08-30T03:33:33.214Z,37.97
2018-08-30T03:36:01.901Z,37.00
2018-08-30T03:38:30.708Z,38.30
2018-08-30T03:40:59.254Z,39.03
2018-08-30T03:43:28.377Z,37.33
2018-08-30T03:45:57.289Z,39.47
2018-08-30T03:48:25.703Z,39.77
2018-08-30T03:50:54.153Z,39.27
2018-08-30T03:53:22.630Z,39.80
2018-08-30T03:55:51.084Z,39.03
2018-08-30T03:58:19.586Z,37.90
2018-08-30T04:00:48.044Z,37.83
2018-08-30T04:03:16.510Z,52.20
2018-08-30T04:05:45.009Z,39.97
2018-08-30T04:08:13.496Z,40.47
2018-08-30T04:10:41.999Z,38.20
2018-08-30T04:13:10.493Z,38.80
2018-08-30T04:15:43.766Z,38.90
2018-08-30T04:18:12.213Z,39.03
2018-08-30T04:20:40.719Z,39.97
2018-08-30T04:23:09.271Z,39.90
2018-08-30T04:25:37.721Z,38.87
2018-08-30T04:28:06.533Z,39.07
2018-08-30T04:30:35.366Z,39.93
2018-08-30T04:33:03.846Z,37.83
2018-08-30T04:35:32.393Z,39.30
2018-08-30T04:38:00.862Z,37.70
2018-08-30T04:40:29.395Z,39.20
2018-08-30T04:42:57.845Z,36.90
2018-08-30T04:45:26.257Z,37.80
2018-08-30T04:47:54.747Z,39.87
2018-08-30T04:50:23.285Z,38.90
2018-08-30T04:52:51.817Z,41.20
2018-08-30T04:55:20.648Z,41.37
2018-08-30T04:57:49.087Z,42.63
2018-08-30T05:00:17.537Z,41.80
2018-08-30T05:02:46.019Z,44.13
2018-08-30T05:05:14.493Z,43.47
2018-08-30T05:07:43.027Z,45.00
2018-08-30T05:10:11.615Z,44.00
2018-08-30T05:12:40.117Z,45.27
2018-08-30T05:15:08.768Z,44.40
2018-08-30T05:17:37.235Z,44.97
2018-08-30T05:20:06.187Z,46.30
2018-08-30T05:22:34.782Z,48.10
2018-08-30T05:25:03.254Z,44.87
2018-08-30T05:27:31.725Z,46.53
2018-08-30T05:30:00.313Z,46.30
2018-08-30T05:32:28.780Z,41.97
2018-08-30T05:34:57.231Z,45.80
2018-08-30T05:37:25.747Z,44.30
2018-08-30T05:39:54.499Z,43.63
2018-08-30T05:42:23.088Z,45.20
2018-08-30T05:44:51.580Z,44.00
2018-08-30T05:47:20.060Z,43.97
2018-08-30T05:49:48.541Z,43.40
2018-08-30T05:52:17.086Z,43.53
2018-08-30T05:54:45.718Z,39.80
2018-08-30T05:57:14.716Z,40.10
2018-08-30T05:59:43.338Z,39.40
2018-08-30T06:02:12.119Z,39.60
2018-08-30T06:04:40.580Z,41.30
2018-08-30T06:07:09.101Z,40.27
2018-08-30T06:09:37.565Z,38.60
2018-08-30T06:12:06.248Z,39.30
2018-08-30T06:14:34.684Z,37.30
2018-08-30T06:17:03.171Z,39.83
2018-08-30T06:19:31.676Z,39.77
2018-08-30T06:22:00.153Z,36.50
2018-08-30T06:24:29.264Z,37.10
2018-08-30T06:26:57.805Z,34.57
2018-08-30T06:29:26.184Z,34.17
2018-08-30T06:31:54.777Z,30.03
2018-08-30T06:34:23.418Z,31.53
2018-08-30T06:36:52.078Z,30.97
2018-08-30T06:39:20.598Z,28.70
2018-08-30T06:41:49.082Z,28.33
2018-08-30T06:44:17.581Z,29.27
2018-08-30T06:46:46.037Z,29.73
2018-08-30T06:49:14.804Z,28.50
2018-08-30T06:51:43.873Z,27.63
2018-08-30T06:54:12.480Z,26.17
2018-08-30T06:56:41.048Z,24.73
2018-08-30T06:59:09.589Z,21.87
2018-08-30T07:01:38.549Z,19.87
2018-08-30T07:04:08.118Z,19.17
2018-08-30T07:06:36.872Z,19.60
2018-08-30T07:09:09.170Z,17.97
2018-08-30T07:11:38.580Z,17.70
2018-08-30T07:14:07.831Z,16.43
2018-08-30T07:16:36.706Z,15.37
2018-08-30T07:19:05.542Z,16.37
2018-08-30T07:21:34.022Z,15.67
2018-08-30T07:24:02.501Z,14.97
2018-08-30T07:26:31.003Z,14.80
2018-08-30T07:28:59.449Z,17.30
2018-08-30T07:31:28.373Z,15.87
2018-08-30T07:33:57.281Z,15.23
2018-08-30T07:36:25.832Z,16.23
2018-08-30T07:38:54.309Z,15.47
2018-08-30T07:41:24.373Z,14.90
2018-08-30T07:43:52.942Z,14.13
2018-08-30T07:46:21.646Z,13.60
2018-08-30T07:48:50.076Z,14.60
2018-08-30T07:51:18.561Z,12.83
2018-08-30T07:53:47.011Z,12.40
2018-08-30T07:56:15.545Z,12.00
2018-08-30T07:58:44.045Z,11.83
2018-08-30T08:01:12.524Z,12.40
2018-08-30T08:03:40.980Z,11.10
2018-08-30T08:06:09.523Z,10.57
2018-08-30T08:08:37.988Z,10.40
2018-08-30T08:11:06.464Z,10.37
2018-08-30T08:13:34.934Z,9.10
2018-08-30T08:16:04.173Z,8.27
2018-08-30T08:18:32.615Z,7.63
2018-08-30T08:21:01.138Z,7.43
2018-08-30T08:23:29.827Z,7.80
2018-08-30T08:25:58.448Z,6.93
2018-08-30T08:28:26.856Z,7.43
2018-08-30T08:30:55.307Z,7.23
2018-08-30T08:33:23.779Z,6.20
2018-08-30T08:35:52.262Z,6.50
2018-08-30T08:38:20.722Z,6.13
2018-08-30T08:40:49.201Z,6.17
2018-08-30T08:43:17.666Z,6.13
2018-08-30T08:45:46.147Z,5.53
2018-08-30T08:48:14.594Z,6.13
2018-08-30T08:50:43.057Z,5.60
2018-08-30T08:53:11.503Z,6.03
2018-08-30T08:55:40.345Z,5.07
2018-08-30T08:58:08.872Z,5.00
2018-08-30T09:00:37.452Z,4.83
2018-08-30T09:03:06.246Z,4.90
2018-08-30T09:05:37.779Z,4.60
2018-08-30T09:08:08.981Z,5.50
2018-08-30T09:10:37.482Z,4.73
2018-08-30T09:13:06.064Z,4.53
2018-08-30T09:15:34.571Z,4.80
2018-08-30T09:18:03.068Z,3.87
2018-08-30T09:20:31.482Z,4.70
2018-08-30T09:23:00.132Z,4.70
2018-08-30T09:25:28.545Z,3.63
2018-08-30T09:27:57.027Z,3.80
2018-08-30T09:30:25.509Z,3.70
2018-08-30T09:32:54.000Z,4.20
2018-08-30T09:35:22.563Z,4.47
2018-08-30T09:37:51.009Z,4.30
2018-08-30T09:40:19.505Z,4.23
2018-08-30T09:42:47.985Z,4.53
2018-08-30T09:45:16.441Z,4.40
2018-08-30T09:47:45.017Z,3.70
2018-08-30T09:50:13.561Z,3.60
2018-08-30T09:52:42.022Z,3.70
2018-08-30T09:55:10.482Z,4.00
2018-08-30T09:57:39.141Z,3.70
2018-08-30T10:00:11.889Z,3.25
2018-08-30T10:02:45.804Z,4.15
2018-08-30T10:05:14.295Z,3.77
2018-08-30T10:07:42.852Z,3.42
2018-08-30T10:10:11.323Z,3.60
2018-08-30T10:12:39.820Z,3.58
2018-08-30T10:15:08.379Z,3.95
2018-08-30T10:17:36.899Z,3.65
2018-08-30T10:20:05.684Z,3.70
2018-08-30T10:22:34.226Z,2.50
2018-08-30T10:25:02.725Z,2.70
2018-08-30T10:27:31.300Z,2.90
2018-08-30T10:29:59.716Z,3.00
2018-08-30T10:32:28.273Z,3.40
2018-08-30T10:34:56.719Z,3.30
2018-08-30T10:37:25.566Z,3.00
2018-08-30T10:39:54.020Z,2.20
2018-08-30T10:42:22.458Z,2.70
2018-08-30T10:44:50.941Z,2.30
2018-08-30T10:47:19.400Z,2.97
2018-08-30T10:49:48.372Z,2.90
2018-08-30T10:52:16.773Z,2.70
2018-08-30T10:54:45.193Z,2.43
2018-08-30T10:57:13.670Z,2.57
2018-08-30T10:59:42.141Z,2.80
2018-08-30T11:02:10.671Z,3.17
2018-08-30T11:04:39.217Z,2.87
2018-08-30T11:07:07.730Z,3.03
2018-08-30T11:09:36.309Z,3.47
2018-08-30T11:12:04.784Z,2.67
2018-08-30T11:14:33.261Z,2.80
2018-08-30T11:17:01.819Z,2.60
2018-08-30T11:19:30.567Z,2.60
2018-08-30T11:21:59.213Z,2.73
2018-08-30T11:24:27.748Z,2.90
2018-08-30T11:26:56.182Z,3.70
2018-08-30T11:29:25.069Z,2.17
2018-08-30T11:31:53.561Z,2.00
2018-08-30T11:34:22.388Z,2.27
2018-08-30T11:36:50.884Z,2.10
2018-08-30T11:39:19.325Z,1.97
2018-08-30T11:41:47.964Z,2.10
2018-08-30T11:44:16.501Z,2.07
2018-08-30T11:46:44.944Z,2.30
2018-08-30T11:49:13.476Z,1.70
2018-08-30T11:51:41.934Z,1.90
2018-08-30T11:54:10.457Z,1.80
2018-08-30T11:56:38.905Z,2.17
2018-08-30T11:59:07.407Z,1.97
2018-08-30T12:01:35.921Z,2.57
2018-08-30T12:04:04.428Z,2.23
2018-08-30T12:06:33.015Z,1.87
2018-08-30T12:09:01.536Z,2.17
2018-08-30T12:11:30.171Z,1.90
2018-08-30T12:13:58.579Z,2.07
2018-08-30T12:16:27.077Z,2.00
2018-08-30T12:18:55.626Z,1.90
2018-08-30T12:21:24.107Z,2.10
2018-08-30T12:23:52.559Z,2.07
2018-08-30T12:26:21.158Z,2.10
2018-08-30T12:28:49.647Z,2.30
2018-08-30T12:31:18.505Z,3.00
2018-08-30T12:33:47.040Z,2.10
2018-08-30T12:36:15.582Z,2.13
2018-08-30T12:38:44.128Z,2.27
2018-08-30T12:41:12.640Z,2.27
2018-08-30T12:43:41.269Z,2.60
2018-08-30T12:46:09.693Z,1.93
2018-08-30T12:48:38.173Z,2.70
2018-08-30T12:51:06.771Z,2.30
2018-08-30T12:53:35.178Z,2.60
2018-08-30T12:56:03.552Z,2.47
2018-08-30T12:58:32.156Z,1.50
2018-08-30T13:01:00.754Z,2.33
2018-08-30T13:03:29.329Z,2.10
2018-08-30T13:05:58.067Z,1.73
2018-08-30T13:08:26.374Z,1.53
2018-08-30T13:10:55.272Z,2.33
2018-08-30T13:13:24.670Z,2.37
2018-08-30T13:15:53.119Z,1.77
2018-08-30T13:18:21.797Z,2.23
2018-08-30T13:20:50.267Z,2.10
2018-08-30T13:23:18.667Z,2.20
2018-08-30T13:25:50.487Z,2.27
2018-08-30T13:28:18.849Z,2.10
2018-08-30T13:30:50.415Z,2.27
2018-08-30T13:33:19.909Z,1.83
2018-08-30T13:35:47.342Z,2.07
2018-08-30T13:38:15.932Z,2.00
2018-08-30T13:40:44.346Z,1.87
2018-08-30T13:43:13.012Z,2.70
2018-08-30T13:45:41.405Z,2.00
2018-08-30T13:48:09.791Z,2.07
2018-08-30T13:50:38.341Z,2.23
2018-08-30T13:53:06.831Z,2.03
2018-08-30T13:55:35.484Z,1.67
2018-08-30T13:58:03.907Z,2.63
2018-08-30T14:00:32.452Z,2.77
2018-08-30T14:03:00.773Z,2.40
2018-08-30T14:05:29.362Z,1.67
2018-08-30T14:07:57.699Z,2.10
2018-08-30T14:10:26.325Z,2.13
2018-08-30T14:12:54.705Z,2.13
2018-08-30T14:15:23.492Z,2.03
2018-08-30T14:17:51.358Z,2.90
2018-08-30T14:20:21.057Z,2.37
2018-08-30T14:22:49.369Z,2.00
2018-08-30T14:25:17.884Z,2.30
2018-08-30T14:27:46.390Z,2.30
2018-08-30T14:30:14.961Z,2.60
2018-08-30T14:32:43.646Z,2.07
2018-08-30T14:35:12.145Z,2.10
2018-08-30T14:37:40.644Z,2.40
2018-08-30T14:40:09.237Z,2.50
2018-08-30T14:42:37.600Z,3.07
2018-08-30T14:45:06.297Z,2.30
2018-08-30T14:47:34.921Z,2.33
2018-08-30T14:50:03.241Z,2.70
2018-08-30T14:52:31.726Z,2.20
2018-08-30T14:55:00.278Z,2.40
2018-08-30T14:57:29.776Z,3.07
2018-08-30T14:59:58.255Z,2.80
2018-08-30T15:02:26.717Z,2.57
2018-08-30T15:04:55.199Z,2.27
2018-08-30T15:07:23.652Z,2.40
2018-08-30T15:09:52.089Z,2.50
2018-08-30T15:12:20.688Z,3.00
2018-08-30T15:14:49.154Z,2.47
2018-08-30T15:17:17.839Z,2.10
2018-08-30T15:19:46.414Z,2.90
2018-08-30T15:22:15.896Z,3.20
2018-08-30T15:24:44.393Z,2.83
2018-08-30T15:27:12.955Z,2.67
2018-08-30T15:29:41.400Z,3.00
2018-08-30T15:32:09.848Z,2.20
2018-08-30T15:34:38.409Z,2.37
2018-08-30T15:37:07.057Z,3.13
2018-08-30T15:39:35.596Z,2.60
2018-08-30T15:42:04.228Z,2.10
2018-08-30T15:44:32.650Z,2.90
2018-08-30T15:47:01.117Z,2.60
2018-08-30T15:49:30.015Z,2.30
2018-08-30T15:51:58.552Z,2.20
2018-08-30T15:54:27.071Z,2.70
2018-08-30T15:56:55.556Z,2.73
2018-08-30T15:59:24.050Z,2.57
2018-08-30T16:01:53.340Z,2.93
2018-08-30T16:04:21.928Z,2.60
2018-08-30T16:06:50.581Z,2.40
2018-08-30T16:09:19.033Z,2.67
2018-08-30T16:11:47.613Z,2.50
2018-08-30T16:14:16.282Z,2.23
2018-08-30T16:16:44.805Z,2.27
2018-08-30T16:19:13.468Z,2.90
2018-08-30T16:21:41.950Z,2.10
2018-08-30T16:24:10.437Z,2.40
2018-08-30T16:26:38.946Z,2.63
2018-08-30T16:29:07.533Z,2.30
2018-08-30T16:31:35.976Z,3.13
2018-08-30T16:34:04.560Z,2.87
2018-08-30T16:36:32.929Z,2.80
2018-08-30T16:39:01.546Z,2.80
2018-08-30T16:41:30.063Z,3.30
2018-08-30T16:43:58.594Z,2.90
2018-08-30T16:46:27.016Z,2.73
2018-08-30T16:48:55.854Z,2.97
2018-08-30T16:51:24.373Z,3.00
2018-08-30T16:53:52.880Z,2.90
2018-08-30T16:56:21.599Z,3.50
2018-08-30T16:58:49.938Z,3.17
2018-08-30T17:01:18.470Z,3.00
2018-08-30T17:03:46.931Z,2.90
2018-08-30T17:06:15.426Z,3.50
2018-08-30T17:08:44.495Z,3.50
2018-08-30T17:11:12.902Z,2.77
2018-08-30T17:13:41.504Z,2.50
2018-08-30T17:16:10.024Z,3.10
2018-08-30T17:18:39.132Z,3.20
2018-08-30T17:21:07.601Z,2.77
2018-08-30T17:23:36.142Z,3.70
2018-08-30T17:26:05.168Z,3.63
2018-08-30T17:28:33.660Z,3.10
2018-08-30T17:31:02.249Z,2.63
2018-08-30T17:33:30.695Z,3.30
2018-08-30T17:35:59.299Z,3.40
2018-08-30T17:38:27.820Z,3.37
2018-08-30T17:40:56.364Z,3.37
2018-08-30T17:43:24.833Z,3.80
2018-08-30T17:45:53.364Z,3.07
2018-08-30T17:48:22.168Z,2.90
2018-08-30T17:50:50.729Z,2.67
2018-08-30T17:53:19.294Z,3.70
2018-08-30T17:55:47.920Z,3.60
2018-08-30T17:58:16.624Z,4.23
2018-08-30T18:00:45.115Z,3.37
2018-08-30T18:03:13.793Z,2.97
2018-08-30T18:05:42.427Z,2.80
2018-08-30T18:08:10.917Z,2.77
2018-08-30T18:10:39.385Z,3.50
2018-08-30T18:13:08.150Z,2.90
2018-08-30T18:15:36.796Z,3.57
2018-08-30T18:18:05.739Z,3.77
2018-08-30T18:20:34.203Z,2.87
2018-08-30T18:23:03.105Z,2.83
2018-08-30T18:25:31.642Z,2.87
2018-08-30T18:28:00.184Z,2.57
2018-08-30T18:30:28.705Z,3.20
2018-08-30T18:32:57.320Z,3.30
2018-08-30T18:35:25.856Z,5.47
2018-08-30T18:37:54.579Z,3.47
2018-08-30T18:40:23.069Z,3.30
2018-08-30T18:42:51.714Z,3.73
2018-08-30T18:45:20.311Z,2.70
2018-08-30T18:47:48.790Z,4.10
2018-08-30T18:50:17.383Z,3.43
2018-08-30T18:52:45.853Z,3.13
2018-08-30T18:55:14.360Z,3.40
2018-08-30T18:57:42.987Z,3.10
2018-08-30T19:00:11.754Z,3.10
2018-08-30T19:02:40.271Z,4.03
2018-08-30T19:05:08.807Z,3.23
2018-08-30T19:07:37.607Z,4.27
2018-08-30T19:10:06.323Z,3.43
2018-08-30T19:12:35.385Z,3.43
2018-08-30T19:15:09.379Z,3.73
2018-08-30T19:17:43.609Z,3.57
2018-08-30T19:20:12.265Z,3.93
2018-08-30T19:22:44.146Z,3.83
2018-08-30T19:25:15.289Z,4.37
2018-08-30T19:27:46.046Z,3.77
2018-08-30T19:30:19.809Z,3.67
2018-08-30T19:32:48.613Z,3.47
2018-08-30T19:35:22.578Z,4.50
2018-08-30T19:37:51.517Z,4.07
2018-08-30T19:40:26.706Z,4.17
2018-08-30T19:42:55.355Z,2.87
2018-08-30T19:45:24.041Z,3.63
2018-08-30T19:47:52.555Z,3.40
2018-08-30T19:50:21.216Z,3.73
2018-08-30T19:52:49.840Z,3.63
2018-08-30T19:55:18.620Z,4.73
2018-08-30T19:57:47.350Z,3.53
2018-08-30T20:00:16.213Z,3.77
2018-08-30T20:02:44.891Z,3.57
2018-08-30T20:05:13.774Z,4.93
2018-08-30T20:07:42.370Z,3.70
2018-08-30T20:10:10.864Z,3.73
2018-08-30T20:12:39.385Z,3.73
2018-08-30T20:15:08.127Z,3.70
2018-08-30T20:17:36.627Z,4.00
2018-08-30T20:20:05.958Z,3.83
2018-08-30T20:22:34.541Z,3.60
2018-08-30T20:25:03.160Z,3.70
2018-08-30T20:27:31.623Z,3.77
2018-08-30T20:30:00.340Z,3.90
2018-08-30T20:32:28.945Z,3.53
2018-08-30T20:34:57.517Z,3.47
2018-08-30T20:37:26.196Z,5.00
2018-08-30T20:39:54.750Z,3.33
2018-08-30T20:42:23.476Z,3.50
2018-08-30T20:44:52.035Z,3.10
2018-08-30T20:47:20.773Z,3.83
2018-08-30T20:49:49.455Z,3.53
2018-08-30T20:52:18.227Z,3.57
2018-08-30T20:54:46.774Z,4.30
2018-08-30T20:57:15.435Z,3.30
2018-08-30T20:59:44.059Z,3.13
2018-08-30T21:02:12.721Z,3.70
2018-08-30T21:04:41.169Z,3.80
2018-08-30T21:07:09.848Z,3.47
2018-08-30T21:09:38.634Z,3.47
2018-08-30T21:12:07.186Z,3.27
2018-08-30T21:14:35.665Z,3.80
2018-08-30T21:17:04.124Z,4.53
2018-08-30T21:19:32.679Z,5.43
2018-08-30T21:22:01.126Z,4.67
2018-08-30T21:24:29.662Z,4.10
2018-08-30T21:26:58.092Z,3.80
2018-08-30T21:29:26.601Z,4.30
2018-08-30T21:31:55.116Z,3.90
2018-08-30T21:34:23.566Z,3.90
2018-08-30T21:36:52.080Z,4.07
2018-08-30T21:39:22.470Z,4.90
2018-08-30T21:41:50.985Z,5.20
2018-08-30T21:44:19.533Z,3.90
2018-08-30T21:46:48.079Z,4.07
2018-08-30T21:49:16.645Z,4.20
2018-08-30T21:51:45.285Z,2.97
2018-08-30T21:54:13.765Z,3.07
2018-08-30T21:56:42.269Z,3.17
2018-08-30T21:59:10.881Z,3.00
2018-08-30T22:01:39.422Z,3.10
2018-08-30T22:04:07.926Z,3.20
2018-08-30T22:06:36.440Z,3.27
2018-08-30T22:09:07.749Z,2.97
2018-08-30T22:11:36.314Z,2.93
2018-08-30T22:14:04.980Z,3.50
2018-08-30T22:16:33.717Z,3.27
2018-08-30T22:19:02.203Z,3.30
2018-08-30T22:21:30.685Z,3.47
2018-08-30T22:23:59.117Z,3.47
2018-08-30T22:26:27.764Z,3.20
2018-08-30T22:28:56.244Z,2.67
2018-08-30T22:31:24.708Z,3.20
2018-08-30T22:33:53.318Z,3.13
2018-08-30T22:36:22.076Z,3.40
2018-08-30T22:38:50.564Z,2.80
2018-08-30T22:41:19.059Z,2.80
2018-08-30T22:43:47.573Z,3.00
2018-08-30T22:46:16.172Z,2.80
2018-08-30T22:48:44.614Z,2.90
2018-08-30T22:51:13.199Z,2.87
2018-08-30T22:53:41.720Z,3.60
2018-08-30T22:56:10.228Z,3.77
2018-08-30T22:58:39.048Z,3.20
2018-08-30T23:01:07.512Z,2.90
2018-08-30T23:03:36.112Z,3.37
2018-08-30T23:06:04.705Z,3.63
2018-08-30T23:08:33.365Z,2.87
2018-08-30T23:11:01.874Z,3.43
2018-08-30T23:13:30.324Z,3.70
2018-08-30T23:15:58.825Z,3.20
2018-08-30T23:18:27.348Z,3.17
2018-08-30T23:20:55.859Z,3.30
2018-08-30T23:23:24.400Z,3.30
2018-08-30T23:25:52.936Z,3.40
2018-08-30T23:28:21.430Z,3.00
2018-08-30T23:30:50.002Z,3.30
2018-08-30T23:33:18.575Z,3.03
2018-08-30T23:35:47.077Z,3.23
2018-08-30T23:38:15.647Z,3.20
2018-08-30T23:40:44.243Z,3.33
2018-08-30T23:43:12.708Z,2.77
2018-08-30T23:45:41.196Z,3.10
2018-08-30T23:48:09.627Z,3.23
2018-08-30T23:50:38.151Z,3.30
2018-08-30T23:53:06.597Z,2.77
2018-08-30T23:55:35.070Z,3.30
2018-08-30T23:58:14.913Z,3.23
